createdAt,value
2019-01-16T00:00:09.907Z,14.63
2019-01-16T00:05:18.651Z,18.37
2019-01-16T00:10:35.514Z,6.43
2019-01-16T00:15:43.340Z,39.90
2019-01-16T00:20:59.943Z,3.33
2019-01-16T00:26:07.796Z,57.67
2019-01-16T00:31:18.866Z,24.65
2019-01-16T00:36:43.198Z,1.57
2019-01-16T00:42:09.510Z,1.03
2019-01-16T00:47:26.135Z,1.83
2019-01-16T00:52:33.810Z,1.10
2019-01-16T00:57:44.500Z,0.70
2019-01-16T01:02:50.534Z,0.83
2019-01-16T01:08:13.301Z,0.83
2019-01-16T01:13:36.958Z,0.85
2019-01-16T01:18:47.475Z,1.20
2019-01-16T01:24:13.241Z,0.97
2019-01-16T01:29:27.147Z,1.05
2019-01-16T01:34:43.709Z,0.80
2019-01-16T01:39:57.618Z,1.03
2019-01-16T01:45:05.535Z,0.80
2019-01-16T01:50:31.646Z,0.90
2019-01-16T01:55:51.243Z,0.80
2019-01-16T02:01:04.738Z,1.10
2019-01-16T02:06:28.338Z,0.80
2019-01-16T02:11:38.926Z,1.00
2019-01-16T02:16:49.680Z,1.00
2019-01-16T02:21:57.602Z,1.10
2019-01-16T02:27:05.208Z,1.00
2019-01-16T02:32:29.424Z,1.10
2019-01-16T02:37:39.795Z,1.00
2019-01-16T02:42:47.525Z,0.87
2019-01-16T02:48:02.127Z,0.90
2019-01-16T02:53:09.700Z,1.17
2019-01-16T02:58:20.535Z,1.02
2019-01-16T03:03:32.179Z,1.30
2019-01-16T03:08:39.683Z,1.07
2019-01-16T03:13:50.381Z,1.10
2019-01-16T03:19:14.264Z,1.20
2019-01-16T03:24:24.637Z,1.07
2019-01-16T03:29:40.961Z,1.33
2019-01-16T03:34:48.453Z,0.90
2019-01-16T03:39:58.824Z,1.10
2019-01-16T03:45:12.796Z,1.23
2019-01-16T03:50:26.361Z,1.20
2019-01-16T03:55:34.199Z,1.37
2019-01-16T04:00:42.020Z,1.40
2019-01-16T04:05:55.829Z,1.37
2019-01-16T04:11:06.311Z,1.40
2019-01-16T04:16:16.970Z,1.50
2019-01-16T04:21:30.440Z,1.57
2019-01-16T04:26:43.790Z,1.50
2019-01-16T04:31:57.732Z,2.00
2019-01-16T04:37:11.378Z,1.43
2019-01-16T04:42:25.187Z,1.57
2019-01-16T04:47:39.380Z,2.00
2019-01-16T04:52:56.265Z,1.90
2019-01-16T04:58:10.063Z,1.90
2019-01-16T05:03:34.008Z,1.90
2019-01-16T05:08:47.293Z,2.03
2019-01-16T05:13:55.179Z,2.43
2019-01-16T05:19:09.207Z,2.03
2019-01-16T05:24:15.623Z,2.97
2019-01-16T05:29:40.231Z,3.10
2019-01-16T05:34:57.404Z,2.80
2019-01-16T05:40:06.117Z,5.87
2019-01-16T05:45:14.098Z,5.07
2019-01-16T05:50:36.651Z,4.40
2019-01-16T05:55:44.274Z,5.20
2019-01-16T06:01:02.469Z,4.57
2019-01-16T06:06:17.540Z,3.50
2019-01-16T06:11:33.753Z,3.77
2019-01-16T06:16:57.525Z,3.57
2019-01-16T06:22:05.234Z,4.10
2019-01-16T06:27:19.428Z,8.25
2019-01-16T06:32:43.565Z,6.60
2019-01-16T06:38:00.147Z,8.03
2019-01-16T06:43:07.960Z,6.47
2019-01-16T06:48:15.653Z,13.30
2019-01-16T06:53:39.242Z,6.75
2019-01-16T06:58:46.767Z,7.30
2019-01-16T07:04:11.170Z,8.30
2019-01-16T07:09:27.777Z,8.93
2019-01-16T07:14:41.733Z,9.83
2019-01-16T07:19:49.627Z,9.37
2019-01-16T07:25:00.436Z,9.85
2019-01-16T07:30:17.420Z,15.13
2019-01-16T07:35:41.274Z,12.47
2019-01-16T07:40:48.996Z,14.83
2019-01-16T07:45:59.786Z,13.83
2019-01-16T07:51:10.262Z,13.77
2019-01-16T07:56:18.175Z,14.23
2019-01-16T08:01:28.649Z,14.33
2019-01-16T08:06:42.287Z,15.48
2019-01-16T08:12:06.627Z,18.80
2019-01-16T08:17:20.587Z,21.63
2019-01-16T08:22:43.659Z,26.90
2019-01-16T08:27:54.217Z,22.07
2019-01-16T08:33:18.003Z,27.27
2019-01-16T08:38:37.588Z,31.33
2019-01-16T08:43:45.324Z,43.80
2019-01-16T08:49:02.240Z,32.67
2019-01-16T08:54:26.040Z,35.27
2019-01-16T08:59:36.870Z,44.30
2019-01-16T09:05:00.409Z,32.30
2019-01-16T09:10:13.820Z,25.37
2019-01-16T09:15:21.658Z,37.03
2019-01-16T09:20:40.070Z,36.00
2019-01-16T09:25:50.411Z,29.93
2019-01-16T09:30:58.349Z,22.87
2019-01-16T09:36:22.551Z,29.77
2019-01-16T09:41:36.410Z,18.10
2019-01-16T09:46:55.778Z,17.23
2019-01-16T09:52:03.719Z,15.37
2019-01-16T09:57:23.693Z,14.03
2019-01-16T10:02:34.598Z,15.03
2019-01-16T10:07:54.657Z,14.47
2019-01-16T10:13:02.505Z,13.20
2019-01-16T10:18:10.118Z,12.53
2019-01-16T10:23:34.323Z,12.07
2019-01-16T10:28:42.025Z,15.23
2019-01-16T10:33:52.645Z,15.53
2019-01-16T10:39:16.517Z,16.23
2019-01-16T10:44:29.845Z,12.47
2019-01-16T10:49:37.463Z,8.60
2019-01-16T10:54:48.348Z,7.20
2019-01-16T10:59:55.964Z,10.00
2019-01-16T11:05:06.239Z,18.07
2019-01-16T11:10:33.243Z,7.55
2019-01-16T11:15:41.122Z,17.23
2019-01-16T11:21:10.932Z,21.47
2019-01-16T11:26:21.823Z,19.83
2019-01-16T11:31:29.456Z,10.37
2019-01-16T11:36:59.861Z,6.55
2019-01-16T11:42:11.047Z,8.60
2019-01-16T11:47:19.240Z,4.37
2019-01-16T11:52:43.692Z,14.50
2019-01-16T11:57:53.995Z,26.23
2019-01-16T12:03:01.802Z,9.50
2019-01-16T12:08:13.212Z,5.20
2019-01-16T12:13:27.097Z,5.70
2019-01-16T12:18:51.217Z,6.30
2019-01-16T12:23:58.697Z,6.10
2019-01-16T12:29:19.579Z,6.77
2019-01-16T12:34:43.896Z,6.77
2019-01-16T12:40:07.899Z,8.13
2019-01-16T12:45:21.090Z,13.05
2019-01-16T12:50:45.666Z,8.93
2019-01-16T12:56:11.892Z,13.20
2019-01-16T13:01:35.698Z,7.55
2019-01-16T13:06:43.683Z,8.53
2019-01-16T13:12:07.399Z,9.27
2019-01-16T13:17:21.297Z,13.00
2019-01-16T13:22:34.594Z,11.70
2019-01-16T13:27:45.071Z,15.87
2019-01-16T13:33:04.881Z,8.63
2019-01-16T13:38:12.601Z,10.60
2019-01-16T13:43:29.320Z,12.30
2019-01-16T13:48:45.833Z,18.93
2019-01-16T13:54:09.970Z,15.95
2019-01-16T13:59:27.333Z,21.53
2019-01-16T14:04:34.692Z,19.43
2019-01-16T14:09:58.838Z,16.47
2019-01-16T14:15:18.963Z,17.83
2019-01-16T14:20:38.540Z,19.03
2019-01-16T14:25:58.540Z,15.70
2019-01-16T14:31:21.103Z,19.93
2019-01-16T14:36:31.921Z,20.67
2019-01-16T14:41:37.828Z,14.40
2019-01-16T14:46:48.164Z,22.87
2019-01-16T14:51:59.602Z,25.10
2019-01-16T14:57:05.763Z,16.60
2019-01-16T15:02:22.716Z,18.12
2019-01-16T15:07:30.856Z,16.60
2019-01-16T15:12:57.067Z,34.53
2019-01-16T15:18:20.943Z,35.87
2019-01-16T15:23:31.465Z,22.67
2019-01-16T15:28:42.132Z,20.90
2019-01-16T15:33:55.966Z,22.80
2019-01-16T15:39:09.401Z,25.07
2019-01-16T15:44:20.095Z,23.13
2019-01-16T15:49:40.071Z,34.30
2019-01-16T15:55:00.026Z,32.10
2019-01-16T16:00:15.421Z,26.30
2019-01-16T16:05:24.250Z,53.30
2019-01-16T16:10:39.252Z,16.53
2019-01-16T16:15:50.269Z,24.57
2019-01-16T16:20:56.428Z,19.07
2019-01-16T16:26:04.424Z,31.20
2019-01-16T16:31:15.452Z,22.30
2019-01-16T16:36:35.629Z,30.13
2019-01-16T16:41:43.426Z,25.53
2019-01-16T16:46:51.154Z,36.10
2019-01-16T16:51:58.753Z,24.40
2019-01-16T16:57:18.556Z,18.47
2019-01-16T17:02:29.191Z,18.20
2019-01-16T17:07:42.797Z,18.77
2019-01-16T17:12:56.073Z,21.20
2019-01-16T17:18:15.427Z,19.70
2019-01-16T17:23:34.955Z,19.12
2019-01-16T17:28:57.338Z,19.33
2019-01-16T17:34:14.790Z,25.90
2019-01-16T17:39:36.952Z,25.52
2019-01-16T17:45:00.907Z,19.90
2019-01-16T17:50:11.540Z,18.33
2019-01-16T17:55:35.086Z,23.90
2019-01-16T18:00:42.624Z,33.87
2019-01-16T18:05:56.258Z,24.98
2019-01-16T18:11:10.234Z,77.47
2019-01-16T18:16:24.006Z,49.50
2019-01-16T18:21:31.515Z,30.93
2019-01-16T18:26:44.970Z,30.73
2019-01-16T18:32:03.026Z,27.43
2019-01-16T18:37:23.245Z,22.60
2019-01-16T18:42:49.354Z,23.40
2019-01-16T18:48:00.171Z,23.43
2019-01-16T18:53:13.657Z,20.80
2019-01-16T18:58:23.994Z,20.55
2019-01-16T19:03:40.831Z,24.67
2019-01-16T19:08:49.773Z,37.20
2019-01-16T19:14:00.762Z,23.17
2019-01-16T19:19:12.750Z,18.90
2019-01-16T19:24:20.464Z,21.55
2019-01-16T19:29:30.796Z,33.87
2019-01-16T19:34:41.339Z,21.63
2019-01-16T19:39:57.986Z,19.50
2019-01-16T19:45:14.642Z,41.10
2019-01-16T19:50:34.051Z,25.40
2019-01-16T19:56:00.138Z,17.20
2019-01-16T20:01:10.882Z,18.97
2019-01-16T20:06:30.451Z,16.57
2019-01-16T20:11:47.302Z,16.93
2019-01-16T20:17:00.603Z,14.97
2019-01-16T20:22:09.424Z,13.87
2019-01-16T20:27:23.121Z,13.80
2019-01-16T20:32:36.698Z,14.57
2019-01-16T20:37:42.611Z,12.77
2019-01-16T20:43:08.415Z,11.60
2019-01-16T20:48:28.388Z,13.70
2019-01-16T20:53:36.023Z,11.83
2019-01-16T20:58:52.189Z,11.50
2019-01-16T21:04:02.503Z,11.67
2019-01-16T21:09:10.005Z,12.03
2019-01-16T21:14:17.754Z,13.60
2019-01-16T21:19:37.118Z,10.78
2019-01-16T21:24:44.617Z,13.50
2019-01-16T21:29:52.130Z,9.87
2019-01-16T21:35:15.381Z,10.50
2019-01-16T21:40:23.296Z,8.35
2019-01-16T21:45:31.278Z,8.83
2019-01-16T21:50:45.228Z,12.30
2019-01-16T21:56:08.991Z,8.43
2019-01-16T22:01:16.842Z,13.08
2019-01-16T22:06:38.078Z,62.30
2019-01-16T22:12:02.250Z,8.87
2019-01-16T22:17:18.980Z,11.17
2019-01-16T22:22:29.234Z,7.72
2019-01-16T22:27:42.907Z,9.07
2019-01-16T22:32:53.366Z,8.83
2019-01-16T22:38:01.107Z,7.37
2019-01-16T22:43:24.813Z,10.40
2019-01-16T22:48:32.497Z,7.40
2019-01-16T22:53:55.282Z,10.08
2019-01-16T22:59:13.742Z,8.80
2019-01-16T23:04:24.652Z,9.97
2019-01-16T23:09:32.770Z,5.30
2019-01-16T23:14:47.433Z,7.05
2019-01-16T23:19:58.336Z,5.63
2019-01-16T23:25:15.729Z,5.17
2019-01-16T23:30:41.621Z,5.17
2019-01-16T23:35:49.151Z,4.23
2019-01-16T23:41:05.736Z,5.73
2019-01-16T23:46:30.222Z,5.30
2019-01-16T23:51:36.164Z,5.53
2019-01-16T23:56:49.964Z,6.37
